Time;durP1;ratioP1;P1;durP2;ratioP2;P2;SDS_P1;SDS_P2;PMS_P1;PMS_P2;Temp;Humidity;BMP_temperature;BMP_pressure;BME280_temperature;BME280_humidity;BME280_pressure;Samples;Min_cycle;Max_cycle;Signal;HPM_P1;HPM_P2
2021/07/16 00:01:02;;;;;;;7.15;6.03;;;;;;;21.81;56.70;102237.06;5015259;28;20038;-71
2021/07/16 00:03:27;;;;;;;6.75;6.05;;;;;;;21.79;56.57;102235.31;5015023;28;20030;-71
2021/07/16 00:05:53;;;;;;;8.05;6.10;;;;;;;21.75;56.74;102227.41;4997555;28;20049;-71
2021/07/16 00:08:18;;;;;;;6.53;5.65;;;;;;;21.79;56.33;102232.69;4997521;28;20461;-71
2021/07/16 00:10:44;;;;;;;7.60;6.50;;;;;;;21.80;56.49;102229.19;4997319;28;20179;-71
2021/07/16 00:13:09;;;;;;;9.07;6.30;;;;;;;21.76;56.59;102228.28;5014962;28;20050;-71
2021/07/16 00:15:35;;;;;;;7.78;6.10;;;;;;;21.80;56.58;102234.44;4997454;28;20056;-71
2021/07/16 00:18:00;;;;;;;6.97;5.75;;;;;;;21.80;56.56;102226.56;4997519;28;20165;-71
2021/07/16 00:20:26;;;;;;;6.53;5.70;;;;;;;21.77;56.62;102226.53;5014673;28;20053;-71
2021/07/16 00:22:51;;;;;;;6.65;5.68;;;;;;;21.78;56.29;102221.28;4980968;28;20443;-71
2021/07/16 00:25:17;;;;;;;8.13;6.30;;;;;;;21.79;56.12;102235.31;4981208;28;20030;-71
2021/07/16 00:27:42;;;;;;;8.85;5.93;;;;;;;21.77;56.17;102230.03;4980751;28;20033;-71
2021/07/16 00:30:09;;;;;;;6.93;5.32;;;;;;;21.78;56.20;102221.28;4964511;28;20058;-71
2021/07/16 00:32:35;;;;;;;8.30;5.20;;;;;;;21.79;55.88;102224.78;4996887;28;20033;-71
2021/07/16 00:35:00;;;;;;;9.68;5.85;;;;;;;21.79;56.46;102230.06;4980793;28;20120;-71
2021/07/16 00:37:25;;;;;;;8.73;6.05;;;;;;;21.75;56.35;102221.25;4996929;28;20084;-71
2021/07/16 00:39:51;;;;;;;7.00;5.13;;;;;;;21.79;56.45;102227.41;4980781;28;20038;-71
2021/07/16 00:42:16;;;;;;;10.88;6.55;;;;;;;21.77;56.15;102224.78;4964731;28;20026;-71
2021/07/16 00:44:42;;;;;;;6.65;5.45;;;;;;;21.79;56.44;102224.78;5014683;28;20374;-71
2021/07/16 00:47:08;;;;;;;8.48;5.57;;;;;;;21.75;56.54;102227.41;4980604;28;20033;-71
2021/07/16 00:49:34;;;;;;;7.10;5.60;;;;;;;21.74;56.28;102227.41;4964489;28;20033;-71
2021/07/16 00:52:00;;;;;;;7.68;6.97;;;;;;;21.78;56.01;102233.56;5014224;28;20033;-71
2021/07/16 00:54:25;;;;;;;7.53;5.68;;;;;;;21.72;56.40;102229.13;4996131;28;20030;-71
2021/07/16 00:56:51;;;;;;;5.15;4.65;;;;;;;21.75;56.03;102235.31;5014272;28;20030;-71
2021/07/16 00:59:16;;;;;;;8.10;5.70;;;;;;;21.78;55.93;102238.81;4996633;28;20084;-71
2021/07/16 01:01:44;;;;;;;8.38;5.25;;;;;;;21.77;55.69;102243.22;5014154;28;20042;-71
2021/07/16 01:04:09;;;;;;;6.18;5.57;;;;;;;21.77;56.19;102247.59;5014044;28;20033;-71
2021/07/16 01:06:35;;;;;;;8.20;4.93;;;;;;;21.75;55.96;102250.22;4996492;28;20030;-71
2021/07/16 01:09:00;;;;;;;7.80;5.97;;;;;;;21.77;55.74;102258.13;4964271;28;20026;-71
2021/07/16 01:11:26;;;;;;;6.80;5.45;;;;;;;21.74;55.82;102246.72;4996321;28;20540;-71
2021/07/16 01:13:53;;;;;;;7.55;6.10;;;;;;;21.74;56.06;102241.44;4980212;28;20026;-71
2021/07/16 01:16:18;;;;;;;6.28;5.38;;;;;;;21.73;56.16;102241.44;5013981;28;20026;-71
2021/07/16 01:18:43;;;;;;;8.57;6.00;;;;;;;21.75;55.98;102248.47;5013838;28;20498;-71
2021/07/16 01:21:10;;;;;;;7.43;5.47;;;;;;;21.77;56.22;102239.69;5013650;28;20469;-71
2021/07/16 01:23:36;;;;;;;6.80;5.47;;;;;;;21.73;56.11;102236.16;4996437;28;20491;-71
2021/07/16 01:26:05;;;;;;;9.48;6.55;;;;;;;21.76;56.10;102241.44;5013806;28;20033;-71
2021/07/16 01:28:31;;;;;;;5.15;4.70;;;;;;;21.75;55.89;102248.47;5013507;28;20053;-71
2021/07/16 01:30:56;;;;;;;5.90;4.90;;;;;;;21.77;56.09;102250.22;5013719;28;20034;-71
2021/07/16 01:33:22;;;;;;;7.28;5.57;;;;;;;21.72;56.03;102232.66;5013583;28;20441;-71
2021/07/16 01:35:47;;;;;;;8.07;7.28;;;;;;;21.75;55.94;102242.31;4996028;28;20546;-71
2021/07/16 01:38:13;;;;;;;6.63;5.28;;;;;;;21.74;55.76;102238.81;4963592;28;20033;-71
2021/07/16 01:40:39;;;;;;;6.88;5.20;;;;;;;21.77;55.97;102239.69;5013526;28;20025;-71
2021/07/16 01:43:10;;;;;;;6.82;5.40;;;;;;;21.76;56.10;102238.81;4995872;28;20449;-71
2021/07/16 01:45:38;;;;;;;6.57;5.85;;;;;;;21.74;56.11;102230.91;5013676;28;20022;-71
2021/07/16 01:48:09;;;;;;;6.32;5.03;;;;;;;21.73;55.42;102239.69;4980078;28;20026;-71
2021/07/16 01:50:36;;;;;;;5.82;4.97;;;;;;;21.76;55.76;102249.34;4997802;28;20025;-71
2021/07/16 01:53:02;;;;;;;6.00;4.88;;;;;;;21.75;55.44;102256.38;5015275;28;20022;-71
2021/07/16 01:55:30;;;;;;;6.63;5.20;;;;;;;21.74;55.17;102254.59;5014501;28;20030;-71
2021/07/16 01:57:57;;;;;;;6.68;4.78;;;;;;;21.75;55.26;102255.50;4996332;28;20029;-71
2021/07/16 02:00:28;;;;;;;6.65;5.85;;;;;;;21.75;55.62;102250.22;5013742;28;20037;-73
2021/07/16 02:02:59;;;;;;;6.30;5.65;;;;;;;21.75;55.79;102258.13;5013364;28;20030;-74
2021/07/16 02:05:26;;;;;;;5.90;4.68;;;;;;;21.73;56.00;102254.59;4995797;28;20036;-74
2021/07/16 02:07:54;;;;;;;6.85;5.32;;;;;;;21.76;55.74;102262.50;4983260;28;20065;-74
2021/07/16 02:10:20;;;;;;;7.38;5.63;;;;;;;21.74;55.84;102264.25;4983628;28;20388;-74
2021/07/16 02:12:46;;;;;;;5.97;4.93;;;;;;;21.77;55.79;102263.41;4999888;28;20025;-74
2021/07/16 02:15:18;;;;;;;6.35;5.60;;;;;;;21.74;55.99;102257.25;4999878;28;20042;-74
2021/07/16 02:17:44;;;;;;;7.45;5.60;;;;;;;21.73;55.85;102255.47;5001330;28;20030;-74
2021/07/16 02:20:29;;;;;;;11.02;5.93;;;;;;;21.76;55.21;102251.97;5002789;28;20049;-74
2021/07/16 02:22:57;;;;;;;5.85;4.28;;;;;;;21.75;55.63;102245.84;5018357;28;20567;-74
2021/07/16 02:25:23;;;;;;;7.30;5.32;;;;;;;21.73;55.32;102244.94;5020417;28;20373;-74
2021/07/16 02:28:01;;;;;;;5.95;5.35;;;;;;;21.68;55.08;102243.19;5004173;28;20037;-74
2021/07/16 02:30:28;;;;;;;7.32;4.78;;;;;;;21.74;55.15;102248.47;5021081;28;20065;-74
2021/07/16 02:32:55;;;;;;;6.53;5.38;;;;;;;21.75;55.13;102250.22;5021481;28;20117;-75
2021/07/16 02:35:21;;;;;;;7.80;5.40;;;;;;;21.71;55.01;102254.59;5019900;28;20495;-74
2021/07/16 02:37:46;;;;;;;6.00;4.95;;;;;;;21.74;55.45;102259.00;4984852;28;20038;-74
2021/07/16 02:40:14;;;;;;;6.65;5.45;;;;;;;21.75;55.36;102261.63;5000796;28;20034;-74
2021/07/16 02:42:40;;;;;;;7.07;5.05;;;;;;;21.72;55.68;102264.25;5018252;28;20022;-74
2021/07/16 02:45:09;;;;;;;6.00;4.55;;;;;;;21.75;55.40;102266.91;5017826;28;20030;-74
2021/07/16 02:47:36;;;;;;;6.57;4.82;;;;;;;21.73;55.39;102260.75;5017642;28;20088;-74
2021/07/16 02:50:08;;;;;;;8.82;5.43;;;;;;;21.72;55.74;102242.31;5000276;28;20112;-74
2021/07/16 02:52:34;;;;;;;7.03;5.57;;;;;;;21.74;55.84;102254.59;5017155;28;20036;-74
2021/07/16 02:54:59;;;;;;;5.18;4.53;;;;;;;21.72;55.65;102256.34;4983633;28;20033;-74
2021/07/16 02:57:25;;;;;;;6.05;4.50;;;;;;;21.74;55.79;102253.72;5017157;28;20026;-74
2021/07/16 02:59:50;;;;;;;5.85;5.25;;;;;;;21.73;55.71;102254.59;5016801;28;20030;-74
2021/07/16 03:02:16;;;;;;;4.78;4.25;;;;;;;21.75;55.68;102255.50;5016513;28;20079;-74
2021/07/16 03:04:41;;;;;;;7.28;5.00;;;;;;;21.74;55.64;102259.88;4998800;28;20037;-74
2021/07/16 03:07:06;;;;;;;5.95;5.07;;;;;;;21.74;55.83;102251.97;5016298;28;20064;-73
2021/07/16 03:09:34;;;;;;;5.63;4.38;;;;;;;21.74;55.82;102248.47;4982402;28;20025;-73
2021/07/16 03:12:01;;;;;;;6.20;4.45;;;;;;;21.73;55.74;102257.22;4999034;28;20435;-74
2021/07/16 03:14:27;;;;;;;6.03;5.22;;;;;;;21.74;55.86;102259.88;4998771;28;20022;-73
2021/07/16 03:16:52;;;;;;;6.70;5.32;;;;;;;21.73;55.64;102255.47;5015807;28;20034;-73
2021/07/16 03:19:17;;;;;;;6.00;4.78;;;;;;;21.73;55.91;102249.34;4998562;28;20053;-73
2021/07/16 03:21:43;;;;;;;6.53;5.00;;;;;;;21.71;55.65;102243.19;5016113;28;20486;-73
2021/07/16 03:24:08;;;;;;;8.32;4.78;;;;;;;21.75;55.64;102266.03;4982536;28;20041;-74
2021/07/16 03:26:33;;;;;;;5.97;4.95;;;;;;;21.73;55.83;102271.28;4998578;28;20391;-74
2021/07/16 03:28:59;;;;;;;8.57;5.07;;;;;;;21.69;55.62;102252.81;4998637;28;20053;-74
2021/07/16 03:31:24;;;;;;;4.68;4.18;;;;;;;21.73;55.69;102258.13;4998359;28;20072;-74
2021/07/16 03:33:49;;;;;;;5.85;4.03;;;;;;;21.75;55.83;102260.75;4998520;28;20381;-74
2021/07/16 03:36:15;;;;;;;5.43;4.40;;;;;;;21.74;55.65;102259.88;5015945;28;20037;-74
2021/07/16 03:38:40;;;;;;;6.53;4.22;;;;;;;21.72;55.77;102255.47;5015650;28;20038;-74
2021/07/16 03:41:08;;;;;;;7.68;5.20;;;;;;;21.74;55.79;102262.50;4998223;28;20565;-73
2021/07/16 03:43:34;;;;;;;9.13;4.57;;;;;;;21.72;55.67;102266.88;4982239;28;20033;-74
2021/07/16 03:45:59;;;;;;;6.03;5.10;;;;;;;21.72;55.69;102255.47;5015687;28;20080;-73
2021/07/16 03:48:25;;;;;;;6.40;4.97;;;;;;;21.71;55.81;102259.84;4998250;28;20044;-74
2021/07/16 03:50:50;;;;;;;6.32;4.43;;;;;;;21.72;55.83;102261.63;4998219;28;20026;-74
2021/07/16 03:53:15;;;;;;;4.80;3.78;;;;;;;21.72;55.73;102269.50;4998007;28;20116;-73
2021/07/16 03:55:41;;;;;;;5.75;4.50;;;;;;;21.72;55.80;102266.88;4981708;28;20137;-73
2021/07/16 03:58:07;;;;;;;4.07;3.40;;;;;;;21.74;55.69;102275.66;5015677;28;20061;-74
2021/07/16 04:00:33;;;;;;;4.60;4.20;;;;;;;21.72;55.84;102269.50;5015358;28;20029;-73
2021/07/16 04:03:01;;;;;;;4.85;3.88;;;;;;;21.73;55.76;102271.28;4998205;28;20056;-73
2021/07/16 04:05:27;;;;;;;6.63;4.20;;;;;;;21.74;55.60;102273.03;5015272;28;20032;-73
2021/07/16 04:07:54;;;;;;;6.03;4.40;;;;;;;21.71;55.73;102273.00;5015130;28;20037;-74
2021/07/16 04:10:22;;;;;;;6.30;3.97;;;;;;;21.74;55.78;102277.41;4997576;28;20017;-73
2021/07/16 04:12:59;;;;;;;6.57;4.43;;;;;;;21.73;55.63;102276.53;5015209;28;20026;-74
2021/07/16 04:15:26;;;;;;;8.98;4.93;;;;;;;21.73;55.83;102273.91;5015200;28;20026;-74
2021/07/16 04:17:57;;;;;;;7.10;4.57;;;;;;;21.74;55.73;102287.97;4997736;28;20098;-74
2021/07/16 04:20:23;;;;;;;5.72;4.60;;;;;;;21.74;55.83;102285.31;4997515;28;20532;-74
2021/07/16 04:22:49;;;;;;;6.10;4.18;;;;;;;21.73;55.80;102287.06;4997329;28;20396;-73
2021/07/16 04:25:17;;;;;;;7.20;5.03;;;;;;;21.74;55.85;102286.19;5015019;28;20029;-73
2021/07/16 04:27:44;;;;;;;5.82;4.05;;;;;;;21.71;55.69;102277.41;5014871;28;20104;-73
2021/07/16 04:30:11;;;;;;;4.95;4.38;;;;;;;21.71;55.69;102280.03;4996410;28;20100;-73
2021/07/16 04:32:38;;;;;;;5.80;4.72;;;;;;;21.72;55.86;102271.25;5014923;28;20030;-74
2021/07/16 04:35:04;;;;;;;9.15;5.38;;;;;;;21.72;55.69;102273.91;5014845;28;20456;-73
2021/07/16 04:37:29;;;;;;;8.45;4.60;;;;;;;21.71;55.69;102266.88;4997286;28;20030;-74
2021/07/16 04:39:56;;;;;;;5.05;4.43;;;;;;;21.76;55.74;102275.69;4997347;28;20392;-74
2021/07/16 04:42:21;;;;;;;4.47;4.00;;;;;;;21.74;55.62;102270.41;4997913;28;20034;-74
2021/07/16 04:44:47;;;;;;;9.05;4.13;;;;;;;21.72;55.80;102266.88;4998936;28;20076;-74
2021/07/16 04:47:13;;;;;;;6.22;4.40;;;;;;;21.75;55.70;102271.28;4998692;28;20025;-74
2021/07/16 04:49:39;;;;;;;5.25;4.20;;;;;;;21.72;55.58;102266.00;4997851;28;20384;-74
2021/07/16 04:52:04;;;;;;;6.55;4.90;;;;;;;21.76;55.61;102275.69;5014803;28;20026;-74
2021/07/16 04:54:30;;;;;;;4.78;3.67;;;;;;;21.75;55.77;102280.06;5014281;28;20042;-74
2021/07/16 04:56:55;;;;;;;4.90;3.67;;;;;;;21.75;55.72;102276.56;5014743;28;20025;-73
2021/07/16 04:59:21;;;;;;;8.05;4.32;;;;;;;21.77;55.35;102276.56;5014360;28;20037;-73
2021/07/16 05:01:48;;;;;;;4.63;3.88;;;;;;;21.76;55.27;102278.31;4996760;28;20088;-73
2021/07/16 05:04:13;;;;;;;6.97;3.80;;;;;;;21.75;55.33;102282.69;5014266;28;20033;-73
2021/07/16 05:06:39;;;;;;;6.97;4.80;;;;;;;21.74;55.44;102272.16;5014321;28;20036;-74
2021/07/16 05:09:05;;;;;;;5.95;4.10;;;;;;;21.78;55.68;102281.84;4980576;28;20037;-73
2021/07/16 05:11:33;;;;;;;7.30;4.63;;;;;;;21.77;55.55;102284.47;4996752;28;20476;-73
2021/07/16 05:14:00;;;;;;;5.93;3.85;;;;;;;21.75;55.49;102273.91;4980784;28;20468;-74
2021/07/16 05:16:26;;;;;;;7.47;4.50;;;;;;;21.78;55.61;102281.84;4996687;28;20042;-74
2021/07/16 05:18:51;;;;;;;4.82;3.50;;;;;;;21.77;55.49;102290.59;5014155;28;20030;-74
2021/07/16 05:21:16;;;;;;;5.97;4.25;;;;;;;21.77;55.82;102287.09;4996829;28;20196;-74
2021/07/16 05:23:42;;;;;;;6.15;3.42;;;;;;;21.80;55.73;102290.63;4964043;28;20038;-74
2021/07/16 05:26:08;;;;;;;5.72;3.47;;;;;;;21.80;55.62;102290.63;4996665;28;20506;-74
2021/07/16 05:28:34;;;;;;;15.60;5.45;;;;;;;21.15;51.62;102293.75;4997113;28;20069;-74
2021/07/16 05:30:59;;;;;;;17.15;5.45;;;;;;;20.56;52.87;102286.22;4982027;28;20076;-74
2021/07/16 05:33:25;;;;;;;17.00;6.10;;;;;;;20.55;52.65;102296.72;4997733;28;20049;-74
2021/07/16 05:35:52;;;;;;;17.05;5.90;;;;;;;20.67;52.39;102288.94;4997417;28;20447;-74
2021/07/16 05:38:18;;;;;;;22.25;6.45;;;;;;;20.66;51.88;102282.81;5015487;28;20030;-74
2021/07/16 05:40:43;;;;;;;12.02;5.38;;;;;;;20.77;52.14;102287.31;4998372;28;20105;-79
2021/07/16 05:43:10;;;;;;;18.90;6.03;;;;;;;20.62;51.64;102296.81;4996990;28;20180;-74
2021/07/16 05:45:36;;;;;;;18.20;5.00;;;;;;;20.81;51.85;102292.59;5014177;28;20025;-74
2021/07/16 05:48:09;;;;;;;15.40;6.68;;;;;;;20.68;51.34;102299.50;5014390;28;20072;-74
2021/07/16 05:50:34;;;;;;;11.98;5.20;;;;;;;20.77;51.43;102292.56;4997550;28;20389;-74
2021/07/16 05:52:59;;;;;;;17.33;6.40;;;;;;;20.68;51.82;102294.22;5013949;28;20026;-71
2021/07/16 05:55:25;;;;;;;15.48;5.38;;;;;;;20.66;51.94;102297.72;4979654;28;20033;-71
2021/07/16 05:57:50;;;;;;;13.65;6.18;;;;;;;20.75;51.46;102304.81;5013543;28;20026;-71
2021/07/16 06:00:16;;;;;;;13.75;5.50;;;;;;;20.73;51.56;102306.53;4996004;28;20034;-71
2021/07/16 06:02:42;;;;;;;19.10;6.70;;;;;;;20.74;51.63;102301.31;4995929;28;20038;-71
2021/07/16 06:05:08;;;;;;;14.20;6.18;;;;;;;20.78;51.41;102305.69;4996038;28;20436;-71
2021/07/16 06:07:33;;;;;;;14.38;5.07;;;;;;;20.66;51.19;102300.34;5013189;28;20037;-71
2021/07/16 06:09:59;;;;;;;20.13;6.47;;;;;;;20.50;51.75;102298.44;5013490;28;20037;-71
2021/07/16 06:12:24;;;;;;;17.20;6.35;;;;;;;20.61;51.66;102299.44;4995733;28;20022;-71
2021/07/16 06:14:56;;;;;;;15.10;6.30;;;;;;;20.61;51.98;102305.56;5013254;28;20132;-72
2021/07/16 06:17:26;;;;;;;20.73;5.97;;;;;;;20.51;52.03;102301.06;5013425;28;20396;-71
2021/07/16 06:19:52;;;;;;;18.67;5.88;;;;;;;20.68;51.86;102320.50;4995587;28;20021;-72
2021/07/16 06:22:18;;;;;;;16.27;6.85;;;;;;;20.56;51.99;102325.66;5013162;28;20035;-71
2021/07/16 06:24:43;;;;;;;15.80;5.65;;;;;;;20.39;52.10;102326.34;4996026;28;20111;-72
2021/07/16 06:27:09;;;;;;;17.60;6.10;;;;;;;20.55;51.73;102334.41;4995635;28;20492;-71
2021/07/16 06:29:34;;;;;;;13.57;5.65;;;;;;;20.61;51.28;102329.22;5012925;28;20130;-71
2021/07/16 06:32:00;;;;;;;12.75;5.30;;;;;;;20.78;51.17;102323.22;5013222;28;20476;-71
2021/07/16 06:34:25;;;;;;;21.17;6.75;;;;;;;20.75;51.03;102331.09;5013137;28;20053;-71
2021/07/16 06:36:51;;;;;;;14.60;6.15;;;;;;;20.55;50.99;102323.00;4979381;28;20029;-71
2021/07/16 06:39:16;;;;;;;19.58;7.00;;;;;;;20.63;50.69;102343.28;5013097;28;20432;-71
2021/07/16 06:41:42;;;;;;;14.90;6.20;;;;;;;20.39;51.30;102337.72;4995572;28;20041;-71
2021/07/16 06:44:08;;;;;;;16.77;6.63;;;;;;;20.45;51.64;102335.19;4995573;28;20040;-71
2021/07/16 06:46:34;;;;;;;23.33;6.28;;;;;;;20.69;51.02;102337.16;4995364;28;20076;-71
2021/07/16 06:49:00;;;;;;;20.05;6.95;;;;;;;20.93;51.07;102333.88;5013102;28;20030;-72
2021/07/16 06:51:25;;;;;;;16.20;5.45;;;;;;;20.73;50.87;102331.09;4995657;28;20476;-71
2021/07/16 06:53:51;;;;;;;16.23;5.82;;;;;;;20.73;50.82;102327.56;4982414;28;20113;-73
2021/07/16 06:56:16;;;;;;;17.20;6.22;;;;;;;20.60;51.10;102335.34;4999292;28;20416;-70
2021/07/16 06:58:42;;;;;;;17.05;6.00;;;;;;;20.66;51.11;102339.75;5016490;28;20396;-72
2021/07/16 07:01:07;;;;;;;21.60;8.38;;;;;;;20.66;50.89;102343.28;4998828;28;20084;-71
2021/07/16 07:03:33;;;;;;;17.75;6.85;;;;;;;20.68;51.18;102351.19;4998710;28;20034;-70
2021/07/16 07:05:58;;;;;;;17.83;6.25;;;;;;;20.77;50.80;102350.41;4982510;28;20026;-71
2021/07/16 07:08:24;;;;;;;22.73;5.95;;;;;;;20.31;51.17;102356.00;5016461;28;20502;-71
2021/07/16 07:10:50;;;;;;;20.85;6.82;;;;;;;20.12;51.07;102342.66;5016199;28;20034;-71
2021/07/16 07:13:16;;;;;;;16.08;6.93;;;;;;;20.23;50.89;102352.44;5016494;28;20067;-71
2021/07/16 07:15:41;;;;;;;21.05;7.85;;;;;;;20.27;51.13;102346.31;4999217;28;20042;-71
2021/07/16 07:18:08;;;;;;;21.55;5.63;;;;;;;20.25;51.08;102358.56;4998603;28;20038;-70
2021/07/16 07:20:35;;;;;;;20.02;6.13;;;;;;;19.86;51.86;102355.47;5015939;28;20032;-70
2021/07/16 07:23:02;;;;;;;21.10;6.30;;;;;;;20.29;51.02;102356.84;4998551;28;20030;-70
2021/07/16 07:25:28;;;;;;;16.23;5.57;;;;;;;20.30;50.82;102361.25;4982910;28;20030;-70
2021/07/16 07:27:53;;;;;;;19.90;6.47;;;;;;;20.42;50.73;102347.41;4998319;28;20036;-70
2021/07/16 07:30:19;;;;;;;12.73;5.70;;;;;;;20.34;50.96;102353.44;5015686;28;20524;-70
2021/07/16 07:32:45;;;;;;;14.70;5.38;;;;;;;20.34;51.02;102361.31;5015895;28;20022;-70
2021/07/16 07:35:12;;;;;;;18.58;6.13;;;;;;;20.27;51.15;102356.84;4998299;28;20017;-71
2021/07/16 07:37:37;;;;;;;18.40;6.53;;;;;;;20.63;50.72;102371.31;5016030;28;20141;-71
2021/07/16 07:40:07;;;;;;;21.98;6.43;;;;;;;20.88;50.20;102360.16;5015901;28;20496;-70
2021/07/16 07:42:33;;;;;;;17.02;5.85;;;;;;;21.08;50.01;102362.06;4997692;28;20052;-70
2021/07/16 07:44:59;;;;;;;15.85;6.65;;;;;;;21.25;49.78;102369.25;5015454;28;20065;-70
2021/07/16 07:47:26;;;;;;;16.25;6.13;;;;;;;21.34;49.90;102369.31;4982352;28;20088;-70
2021/07/16 07:49:55;;;;;;;17.08;5.72;;;;;;;21.43;49.65;102362.34;4998436;28;20036;-71
2021/07/16 07:52:21;;;;;;;16.27;6.68;;;;;;;21.50;49.83;102372.94;4998188;28;20022;-71
2021/07/16 07:54:47;;;;;;;;;;;;;;;21.56;49.83;102382.63;4982205;28;20026;-71
2021/07/16 07:57:12;;;;;;;11.73;5.65;;;;;;;21.58;50.25;102380.88;5015322;28;19913;-70
2021/07/16 07:59:37;;;;;;;17.88;6.50;;;;;;;21.59;50.26;102386.16;5015484;28;20026;-70
2021/07/16 08:02:03;;;;;;;10.90;4.97;;;;;;;21.61;50.37;102384.44;5015468;28;20026;-70
2021/07/16 08:04:28;;;;;;;19.58;5.57;;;;;;;21.61;50.39;102379.16;4997658;28;20088;-71
2021/07/16 08:06:54;;;;;;;14.95;5.07;;;;;;;21.64;50.38;102387.09;4997747;28;20077;-71
2021/07/16 08:09:19;;;;;;;13.25;6.55;;;;;;;21.71;50.54;102394.13;4965152;28;20037;-70
2021/07/16 08:11:44;;;;;;;14.57;6.00;;;;;;;21.71;50.64;102394.13;4997878;28;20034;-71
2021/07/16 08:14:10;;;;;;;8.50;4.38;;;;;;;21.74;50.59;102385.38;4999881;28;20041;-69
2021/07/16 08:16:35;;;;;;;7.95;4.68;;;;;;;21.74;50.70;102386.25;4999592;28;20121;-71
2021/07/16 08:19:01;;;;;;;8.18;4.63;;;;;;;21.77;50.74;102395.06;4967076;28;20034;-71
2021/07/16 08:21:26;;;;;;;9.02;6.22;;;;;;;21.77;50.81;102388.03;4998646;28;20033;-77
2021/07/16 08:23:52;;;;;;;10.68;5.70;;;;;;;21.84;51.09;102400.34;4981873;28;20030;-71
2021/07/16 08:26:21;;;;;;;12.10;5.68;;;;;;;21.87;50.86;102396.88;4981861;28;20054;-71
2021/07/16 08:28:46;;;;;;;12.43;4.93;;;;;;;21.85;51.03;102398.59;4997399;28;20121;-75
2021/07/16 08:31:12;;;;;;;11.43;4.93;;;;;;;21.86;51.19;102405.63;4965258;28;20080;-74
2021/07/16 08:33:37;;;;;;;10.10;5.35;;;;;;;21.86;51.33;102398.63;4997467;28;20425;-73
2021/07/16 08:36:03;;;;;;;9.50;5.50;;;;;;;21.86;51.24;102408.28;4997447;28;20030;-73
2021/07/16 08:38:29;;;;;;;11.77;5.65;;;;;;;21.89;51.49;102403.03;4997177;28;20080;-72
2021/07/16 08:40:54;;;;;;;11.75;5.13;;;;;;;21.90;51.47;102391.63;5014785;28;20037;-73
2021/07/16 08:43:22;;;;;;;8.57;4.95;;;;;;;21.92;51.50;102398.66;4997866;28;20030;-75
2021/07/16 08:45:50;;;;;;;10.75;5.10;;;;;;;22.05;51.15;102404.91;5016042;28;20018;-75
2021/07/16 08:48:16;;;;;;;10.85;5.43;;;;;;;22.05;51.08;102404.91;4997993;28;20028;-75
2021/07/16 08:50:41;;;;;;;11.95;4.95;;;;;;;22.04;51.67;102397.88;4998277;28;20030;-75
2021/07/16 08:53:07;;;;;;;7.13;5.00;;;;;;;22.09;51.20;102397.00;4981809;28;20101;-75
2021/07/16 08:55:36;;;;;;;11.48;5.30;;;;;;;22.13;51.26;102403.19;5015089;28;20060;-78
2021/07/16 08:58:05;;;;;;;8.50;3.78;;;;;;;22.12;51.47;102398.78;4997408;28;20168;-74
2021/07/16 09:00:31;;;;;;;10.43;5.05;;;;;;;22.11;51.66;102410.19;4997040;28;20034;-73
2021/07/16 09:02:59;;;;;;;12.20;5.28;;;;;;;22.06;51.49;102397.03;5014371;28;20026;-74
2021/07/16 09:05:42;;;;;;;7.63;5.05;;;;;;;22.15;51.47;102390.91;4981109;28;20034;-74
2021/07/16 09:08:19;;;;;;;9.23;5.45;;;;;;;22.20;51.56;102406.75;4996941;28;20069;-74
2021/07/16 09:10:49;;;;;;;9.68;4.53;;;;;;;22.17;51.66;102407.59;5014289;28;20069;-74
2021/07/16 09:13:15;;;;;;;9.32;5.13;;;;;;;22.12;51.88;102401.41;4996350;28;20057;-74
2021/07/16 09:15:48;;;;;;;8.80;4.88;;;;;;;22.17;51.75;102396.19;5013794;28;20427;-74
2021/07/16 09:18:21;;;;;;;7.18;5.50;;;;;;;22.22;51.66;102404.97;4997034;28;20113;-74
2021/07/16 09:20:49;;;;;;;9.82;5.57;;;;;;;22.24;51.71;102396.19;5014217;28;20022;-74
2021/07/16 09:23:17;;;;;;;8.20;4.60;;;;;;;22.21;51.82;102393.53;4996241;28;20084;-74
2021/07/16 09:25:44;;;;;;;9.48;5.45;;;;;;;22.22;51.62;102408.47;5014148;28;20034;-71
2021/07/16 09:28:26;;;;;;;9.18;4.95;;;;;;;22.25;52.04;102416.41;5014615;28;20080;-71
2021/07/16 09:30:53;;;;;;;8.90;4.78;;;;;;;22.23;52.04;102414.63;4976769;28;20512;-71
2021/07/16 09:33:19;;;;;;;11.57;4.88;;;;;;;22.09;51.97;102412.81;4994697;28;20034;-72
2021/07/16 09:35:44;;;;;;;9.27;5.22;;;;;;;22.12;52.01;102432.16;4977049;28;20037;-72
2021/07/16 09:38:12;;;;;;;12.23;4.97;;;;;;;22.14;52.12;102415.47;4994896;28;20113;-71
2021/07/16 09:40:41;;;;;;;14.90;6.20;;;;;;;22.21;51.73;102425.16;4976724;28;20030;-71
2021/07/16 09:43:09;;;;;;;8.02;4.93;;;;;;;22.24;51.69;102416.41;4993938;28;20037;-71
2021/07/16 09:45:35;;;;;;;9.52;5.20;;;;;;;22.20;51.96;102418.13;4994044;28;20045;-71
2021/07/16 09:48:33;;;;;;;14.38;4.97;;;;;;;22.24;51.88;102429.56;4976699;28;20113;-71
2021/07/16 09:51:07;;;;;;;12.50;5.60;;;;;;;22.26;51.80;102430.47;4994020;28;20015;-72
2021/07/16 09:53:42;;;;;;;11.90;6.95;;;;;;;22.21;51.91;102417.25;4977408;28;20026;-70
2021/07/16 09:56:38;;;;;;;11.43;5.75;;;;;;;22.27;52.02;102424.31;4994497;28;20477;-71
2021/07/16 09:59:03;;;;;;;10.90;4.75;;;;;;;22.27;51.95;102422.56;4976036;28;20100;-71
2021/07/16 10:01:31;;;;;;;9.10;4.63;;;;;;;22.23;52.20;102425.19;4976858;28;20469;-71
2021/07/16 10:04:01;;;;;;;10.52;5.55;;;;;;;22.28;51.90;102436.63;4976646;28;20030;-70
2021/07/16 10:06:28;;;;;;;9.18;5.30;;;;;;;22.26;52.37;102438.38;4994334;28;20034;-70
2021/07/16 10:08:54;;;;;;;8.70;5.30;;;;;;;22.29;52.33;102439.28;4995203;28;20133;-71
2021/07/16 10:11:20;;;;;;;14.70;6.55;;;;;;;22.25;52.21;102439.25;4995250;28;20534;-73
2021/07/16 10:13:48;;;;;;;15.57;6.00;;;;;;;22.24;52.16;102442.75;4977860;28;20053;-70
2021/07/16 10:16:14;;;;;;;14.82;6.72;;;;;;;21.95;51.76;102442.56;4996190;28;20030;-70
2021/07/16 10:18:40;;;;;;;17.27;6.72;;;;;;;21.87;51.52;102442.53;4977221;28;20468;-70
2021/07/16 10:21:05;;;;;;;15.15;6.97;;;;;;;21.93;52.06;102444.31;4976612;28;20030;-71
2021/07/16 10:23:32;;;;;;;14.95;7.10;;;;;;;21.91;51.18;102440.78;4994076;28;20484;-69
2021/07/16 10:25:58;;;;;;;17.48;7.25;;;;;;;21.84;51.33;102445.13;4993922;28;20022;-70
2021/07/16 10:28:33;;;;;;;21.15;7.32;;;;;;;21.84;51.54;102452.16;4979061;28;20072;-71
2021/07/16 10:30:59;;;;;;;20.48;8.27;;;;;;;21.75;50.89;102445.06;4997566;28;20117;-69
2021/07/16 10:33:36;;;;;;;16.42;7.78;;;;;;;21.71;50.82;102448.53;4948401;28;20022;-71
2021/07/16 10:36:03;;;;;;;21.08;8.88;;;;;;;21.72;51.39;102451.19;4997650;28;20042;-70
2021/07/16 10:38:29;;;;;;;20.42;8.00;;;;;;;21.77;51.04;102455.63;4997569;28;20045;-70
2021/07/16 10:40:54;;;;;;;18.73;7.68;;;;;;;21.64;51.00;102452.91;4980009;28;20034;-70
2021/07/16 10:43:23;;;;;;;23.20;8.27;;;;;;;21.72;51.03;102459.09;4979851;28;20027;-70
2021/07/16 10:45:49;;;;;;;15.82;7.53;;;;;;;21.55;51.12;102444.91;4979715;28;20026;-70
2021/07/16 10:48:18;;;;;;;24.33;8.77;;;;;;;21.65;51.26;102449.41;4963747;28;20141;-71
2021/07/16 10:50:46;;;;;;;17.40;7.75;;;;;;;21.66;51.64;102445.03;4997284;28;20022;-73
2021/07/16 10:53:29;;;;;;;18.17;7.65;;;;;;;21.84;51.48;102454.78;4997617;28;20033;-73
2021/07/16 10:55:55;;;;;;;17.90;7.70;;;;;;;21.82;51.78;102460.03;4997155;28;20105;-71
2021/07/16 10:58:24;;;;;;;20.50;7.50;;;;;;;21.72;51.54;102455.59;4979561;28;20169;-70
2021/07/16 11:00:51;;;;;;;28.23;10.00;;;;;;;21.67;51.68;102460.84;4997271;28;20120;-71
2021/07/16 11:03:18;;;;;;;22.70;10.18;;;;;;;21.58;51.80;102458.09;4996896;28;20027;-70
2021/07/16 11:05:44;;;;;;;19.83;8.30;;;;;;;21.62;51.70;102465.16;4996781;28;20062;-71
2021/07/16 11:08:51;;;;;;;20.33;8.90;;;;;;;21.62;51.28;102465.16;4979185;28;20370;-72
2021/07/16 11:11:22;;;;;;;18.25;9.75;;;;;;;21.65;51.50;102454.66;4996744;28;20105;-72
2021/07/16 11:13:54;;;;;;;16.17;8.48;;;;;;;21.73;51.54;102465.25;4980133;28;20029;-72
2021/07/16 11:16:24;;;;;;;23.35;9.85;;;;;;;21.70;51.76;102463.47;4996897;28;20531;-72
2021/07/16 11:19:07;;;;;;;18.25;9.70;;;;;;;21.65;51.77;102465.19;4979048;28;20076;-73
2021/07/16 11:21:42;;;;;;;16.17;9.25;;;;;;;21.70;51.94;102470.47;4996591;28;20365;-73